Time;durP1;ratioP1;P1;durP2;ratioP2;P2;SDS_P1;SDS_P2;PMS_P1;PMS_P2;Temp;Humidity;BMP_temperature;BMP_pressure;BME280_temperature;BME280_humidity;BME280_pressure;Samples;Min_cycle;Max_cycle;Signal;HPM_P1;HPM_P2
2022/09/08 00:02:10;;;;;;;4.33;3.50;;;20.40;87.30;;;;;;5011069;28;20290;-75
2022/09/08 00:04:36;;;;;;;6.03;4.23;;;20.40;87.70;;;;;;5029213;28;20237;-74
2022/09/08 00:07:02;;;;;;;9.70;4.50;;;20.40;88.00;;;;;;5031655;28;20523;-72
2022/09/08 00:09:30;;;;;;;5.80;4.13;;;20.30;88.00;;;;;;5031714;28;20770;-74
2022/09/08 00:11:56;;;;;;;8.93;4.90;;;20.30;88.60;;;;;;5030160;28;20184;-72
2022/09/08 00:14:22;;;;;;;8.40;4.30;;;20.30;88.30;;;;;;5027783;28;20519;-73
2022/09/08 00:16:48;;;;;;;8.07;4.83;;;20.30;88.60;;;;;;5029462;28;20424;-73
2022/09/08 00:19:14;;;;;;;5.03;3.80;;;20.30;88.70;;;;;;5031695;28;20418;-75
2022/09/08 00:21:39;;;;;;;7.43;4.43;;;20.30;88.70;;;;;;5030511;28;20244;-72
2022/09/08 00:24:05;;;;;;;5.30;4.10;;;20.20;88.30;;;;;;5011773;28;20292;-73
2022/09/08 00:26:30;;;;;;;7.90;4.87;;;20.30;88.60;;;;;;5009155;28;20739;-75
2022/09/08 00:28:57;;;;;;;11.30;4.63;;;20.30;88.30;;;;;;5031224;28;20185;-73
2022/09/08 00:31:23;;;;;;;6.13;4.60;;;20.20;88.40;;;;;;5030892;28;20699;-73
2022/09/08 00:33:48;;;;;;;9.90;5.27;;;20.20;89.20;;;;;;5028341;28;20501;-77
2022/09/08 00:36:16;;;;;;;7.97;4.90;;;20.10;89.00;;;;;;5031026;28;20259;-73
2022/09/08 00:38:43;;;;;;;5.37;4.30;;;20.10;89.20;;;;;;5027898;28;20222;-74
2022/09/08 00:41:12;;;;;;;6.10;4.97;;;20.10;89.20;;;;;;5030677;28;20432;-73
2022/09/08 00:43:42;;;;;;;4.40;3.60;;;20.20;88.90;;;;;;5029300;28;20481;-73
2022/09/08 00:46:14;;;;;;;8.07;4.93;;;20.30;88.90;;;;;;5024577;28;20849;-74
2022/09/08 00:49:16;;;;;;;5.70;4.50;;;20.40;88.70;;;;;;5027674;28;20990;-72
2022/09/08 00:51:45;;;;;;;7.73;4.43;;;20.40;89.00;;;;;;4931208;29;20996;-74
2022/09/08 00:54:13;;;;;;;6.53;4.23;;;20.50;88.90;;;;;;4929914;29;20883;-71
2022/09/08 00:56:41;;;;;;;8.33;4.30;;;20.40;88.60;;;;;;4934190;29;20469;-73
2022/09/08 00:59:08;;;;;;;9.33;4.83;;;20.30;89.00;;;;;;4930161;29;20434;-74
2022/09/08 01:01:35;;;;;;;9.03;4.87;;;20.20;89.60;;;;;;4930486;29;20429;-72
2022/09/08 01:04:03;;;;;;;8.60;5.30;;;20.10;90.20;;;;;;4928837;29;20480;-74
2022/09/08 01:12:44;;;;;;;7.70;5.07;;;19.80;91.20;;;;;;4932049;29;20463;-73
2022/09/08 01:15:14;;;;;;;6.30;4.80;;;19.80;91.50;;;;;;4946455;28;21031;-74
2022/09/08 01:17:41;;;;;;;6.87;5.00;;;19.70;91.80;;;;;;4931007;29;20437;-71
2022/09/08 01:20:08;;;;;;;5.70;4.70;;;19.70;91.90;;;;;;4931209;29;20435;-75
2022/09/08 01:22:54;;;;;;;7.23;4.93;;;19.80;92.30;;;;;;4934816;29;20469;-72
2022/09/08 01:25:44;;;;;;;7.83;5.13;;;19.80;92.40;;;;;;4930405;29;20916;-73
2022/09/08 01:28:19;;;;;;;7.17;5.20;;;19.80;92.40;;;;;;4986030;28;20449;-73
2022/09/08 01:30:49;;;;;;;9.13;5.47;;;19.80;92.40;;;;;;5027552;28;20463;-74
2022/09/08 01:33:16;;;;;;;5.83;4.83;;;19.80;92.40;;;;;;5026112;28;20448;-73
2022/09/08 01:35:43;;;;;;;7.10;4.53;;;19.80;92.50;;;;;;5013164;28;20507;-75
2022/09/08 01:38:10;;;;;;;9.27;5.13;;;19.90;92.60;;;;;;5031821;28;20415;-72
2022/09/08 01:40:38;;;;;;;9.20;5.97;;;19.90;92.60;;;;;;5030891;28;20435;-76
2022/09/08 01:43:08;;;;;;;9.73;4.77;;;19.90;92.30;;;;;;5026294;28;20466;-73
2022/09/08 01:45:34;;;;;;;8.00;5.30;;;19.80;92.60;;;;;;5030386;28;20456;-75
2022/09/08 01:47:59;;;;;;;8.20;5.23;;;19.80;92.50;;;;;;5032439;28;20430;-75
2022/09/08 01:50:25;;;;;;;6.47;4.47;;;19.80;92.70;;;;;;5025993;28;20976;-74
2022/09/08 01:52:51;;;;;;;8.37;4.93;;;19.80;92.60;;;;;;5027283;28;20217;-73
2022/09/08 01:55:17;;;;;;;7.50;4.87;;;19.80;92.70;;;;;;5029622;28;20316;-75
2022/09/08 01:57:43;;;;;;;6.40;4.90;;;19.80;92.70;;;;;;5029607;28;20587;-75
2022/09/08 02:00:09;;;;;;;7.23;5.50;;;19.80;92.60;;;;;;5030009;28;20420;-74
2022/09/08 02:02:36;;;;;;;8.33;5.20;;;19.70;92.50;;;;;;5006360;28;20213;-73
2022/09/08 02:05:02;;;;;;;8.00;5.30;;;19.70;92.50;;;;;;5026381;28;20472;-74
2022/09/08 02:07:27;;;;;;;6.57;5.30;;;19.60;92.20;;;;;;5012279;28;20523;-74
2022/09/08 02:09:53;;;;;;;8.57;4.97;;;19.60;92.30;;;;;;5029670;28;20213;-75
2022/09/08 02:12:19;;;;;;;8.90;4.57;;;19.50;92.00;;;;;;5025877;28;20256;-74
2022/09/08 02:14:45;;;;;;;8.90;3.83;;;19.50;91.80;;;;;;5026505;28;20189;-72
2022/09/08 02:17:11;;;;;;;9.70;4.00;;;19.50;91.50;;;;;;5030089;28;20797;-72
2022/09/08 02:19:36;;;;;;;5.30;3.20;;;19.40;91.10;;;;;;5029214;28;20566;-75
2022/09/08 02:22:02;;;;;;;6.77;3.40;;;19.40;91.20;;;;;;5028093;28;20834;-74
2022/09/08 02:24:28;;;;;;;3.70;3.20;;;19.40;90.90;;;;;;5009472;28;20205;-74
2022/09/08 02:26:54;;;;;;;3.80;2.63;;;19.30;90.70;;;;;;5029653;28;20181;-75
2022/09/08 02:29:20;;;;;;;4.17;2.90;;;19.20;90.70;;;;;;5029673;28;20449;-72
2022/09/08 02:31:45;;;;;;;5.43;2.90;;;19.20;90.50;;;;;;5030115;28;20184;-75
2022/09/08 02:34:11;;;;;;;6.43;2.97;;;19.10;90.50;;;;;;5028686;28;20221;-74
2022/09/08 02:36:36;;;;;;;4.37;2.63;;;19.10;90.60;;;;;;5014885;28;20186;-75
2022/09/08 02:39:02;;;;;;;3.67;2.57;;;19.00;90.50;;;;;;5029622;28;20183;-75
2022/09/08 02:41:28;;;;;;;3.23;2.50;;;19.00;90.60;;;;;;5029701;28;20666;-75
2022/09/08 02:43:54;;;;;;;5.30;2.97;;;18.90;90.70;;;;;;5025809;28;20516;-75
2022/09/08 02:46:20;;;;;;;3.13;2.50;;;18.90;90.80;;;;;;5032765;28;20677;-75
2022/09/08 02:48:46;;;;;;;4.67;2.27;;;18.90;90.80;;;;;;5015696;28;20187;-74
2022/09/08 02:51:18;;;;;;;4.20;2.63;;;18.90;90.70;;;;;;5033524;28;20419;-74
2022/09/08 02:53:44;;;;;;;3.20;2.33;;;19.00;90.80;;;;;;5029532;28;20238;-73
2022/09/08 02:56:10;;;;;;;5.77;2.23;;;18.90;90.70;;;;;;5033557;28;20914;-73
2022/09/08 02:58:36;;;;;;;4.60;2.93;;;19.00;90.90;;;;;;5033737;28;20189;-74
2022/09/08 03:01:03;;;;;;;3.00;2.50;;;19.00;90.70;;;;;;5033255;28;20195;-72
2022/09/08 03:03:29;;;;;;;4.43;2.67;;;18.90;90.50;;;;;;5029707;28;20473;-70
2022/09/08 03:05:55;;;;;;;3.20;2.50;;;18.90;90.60;;;;;;5032414;28;20507;-71
2022/09/08 03:08:21;;;;;;;5.23;2.80;;;18.90;90.70;;;;;;5032922;28;20727;-72
2022/09/08 03:10:51;;;;;;;5.63;2.87;;;18.80;91.00;;;;;;5032477;28;20194;-72
2022/09/08 03:13:17;;;;;;;4.30;3.00;;;18.80;91.00;;;;;;5011772;28;20492;-72
2022/09/08 03:15:43;;;;;;;2.33;2.07;;;18.80;91.00;;;;;;5032125;28;20427;-73
2022/09/08 03:18:10;;;;;;;4.00;2.27;;;18.80;91.00;;;;;;5033087;28;20958;-74
2022/09/08 03:20:37;;;;;;;4.20;2.63;;;18.80;90.70;;;;;;5033449;28;20419;-73
2022/09/08 03:23:03;;;;;;;4.30;2.20;;;18.80;90.70;;;;;;5014125;28;20988;-72
2022/09/08 03:25:30;;;;;;;2.40;1.90;;;18.80;90.80;;;;;;5030948;28;20441;-72
2022/09/08 03:27:56;;;;;;;3.17;2.10;;;18.80;90.70;;;;;;5031526;28;20435;-70
2022/09/08 03:30:22;;;;;;;3.80;2.07;;;18.80;90.70;;;;;;5035620;28;20435;-71
2022/09/08 03:32:48;;;;;;;2.93;2.13;;;18.70;90.80;;;;;;5033147;28;20208;-71
2022/09/08 03:35:16;;;;;;;2.47;1.97;;;18.70;90.70;;;;;;5032220;28;20423;-71
2022/09/08 03:37:42;;;;;;;4.10;2.20;;;18.70;90.80;;;;;;5032715;28;20417;-72
2022/09/08 03:40:15;;;;;;;7.07;2.20;;;18.70;90.60;;;;;;5032806;28;20434;-72
2022/09/08 03:42:42;;;;;;;3.07;1.87;;;18.70;90.90;;;;;;5029482;28;20527;-71
2022/09/08 03:45:12;;;;;;;3.00;1.80;;;18.70;91.00;;;;;;5031396;28;20508;-71
2022/09/08 03:47:37;;;;;;;2.93;2.00;;;18.70;91.00;;;;;;5014224;28;20803;-73
2022/09/08 03:50:04;;;;;;;3.23;1.73;;;18.60;91.00;;;;;;5032019;28;20453;-70
2022/09/08 03:52:30;;;;;;;4.13;1.80;;;18.60;91.20;;;;;;5026318;28;20214;-71
2022/09/08 03:54:57;;;;;;;4.27;2.30;;;18.50;91.30;;;;;;5031464;28;20432;-73
2022/09/08 03:57:25;;;;;;;2.67;1.80;;;18.40;91.60;;;;;;5026463;28;20189;-71
2022/09/08 03:59:53;;;;;;;2.60;1.70;;;18.30;91.90;;;;;;5013926;28;20746;-71
2022/09/08 04:02:20;;;;;;;3.10;2.00;;;18.30;92.00;;;;;;5027673;28;20468;-75
2022/09/08 04:04:50;;;;;;;3.73;1.90;;;18.30;91.90;;;;;;5032903;28;20885;-72
2022/09/08 04:07:17;;;;;;;2.17;1.50;;;18.30;92.00;;;;;;5026600;28;20428;-71
2022/09/08 04:09:43;;;;;;;4.80;1.70;;;18.30;92.00;;;;;;5032693;28;20440;-73
2022/09/08 04:12:09;;;;;;;2.50;1.70;;;18.20;92.00;;;;;;5013475;28;20416;-72
2022/09/08 04:14:35;;;;;;;6.30;1.80;;;18.20;92.10;;;;;;5028308;28;20269;-72
2022/09/08 04:17:00;;;;;;;2.70;1.50;;;18.20;92.10;;;;;;5032515;28;20509;-72
2022/09/08 04:19:26;;;;;;;3.00;1.70;;;18.20;92.10;;;;;;5033114;28;20503;-71
2022/09/08 04:21:52;;;;;;;2.83;1.67;;;18.10;92.30;;;;;;5032352;28;20460;-72
2022/09/08 04:24:19;;;;;;;2.60;1.70;;;18.00;92.60;;;;;;5029209;28;20495;-73
2022/09/08 04:26:45;;;;;;;3.43;2.00;;;18.00;92.80;;;;;;5031626;28;20184;-72
2022/09/08 04:29:11;;;;;;;2.20;1.50;;;17.90;92.90;;;;;;5010325;28;20423;-73
2022/09/08 04:31:36;;;;;;;2.70;1.50;;;17.90;93.00;;;;;;5028233;28;20830;-74
2022/09/08 04:34:03;;;;;;;2.80;1.93;;;17.90;93.10;;;;;;5024391;28;20214;-76
2022/09/08 04:36:30;;;;;;;4.00;1.50;;;17.80;93.20;;;;;;5030885;28;20637;-74
2022/09/08 04:38:57;;;;;;;2.77;1.80;;;17.80;93.30;;;;;;5031381;28;20429;-75
2022/09/08 04:41:23;;;;;;;4.20;1.73;;;17.80;93.50;;;;;;5030711;28;20451;-75
2022/09/08 04:43:48;;;;;;;4.47;1.37;;;17.70;93.50;;;;;;5022190;28;20467;-75
2022/09/08 04:46:16;;;;;;;2.67;1.73;;;17.70;93.70;;;;;;5030119;28;20496;-75
2022/09/08 04:48:43;;;;;;;2.00;1.47;;;17.70;93.70;;;;;;5024039;28;20196;-75
2022/09/08 04:51:13;;;;;;;1.70;1.50;;;17.70;93.70;;;;;;5027522;28;20783;-74
2022/09/08 04:53:39;;;;;;;1.60;1.50;;;17.70;93.70;;;;;;5023700;28;20468;-75
2022/09/08 04:56:07;;;;;;;2.83;1.90;;;17.70;93.70;;;;;;5007648;28;20417;-75
2022/09/08 04:58:34;;;;;;;3.07;2.00;;;17.70;93.70;;;;;;5030822;28;20450;-74
2022/09/08 05:01:04;;;;;;;3.73;1.80;;;17.70;93.90;;;;;;5030388;28;20993;-75
2022/09/08 05:03:30;;;;;;;8.03;1.90;;;17.70;94.00;;;;;;5024654;28;20479;-74
2022/09/08 05:05:56;;;;;;;2.77;1.67;;;17.70;93.80;;;;;;5030177;28;20848;-75
2022/09/08 05:08:21;;;;;;;3.07;1.60;;;17.70;93.80;;;;;;5030107;28;20270;-75
2022/09/08 05:10:50;;;;;;;2.07;1.40;;;17.60;93.70;;;;;;5030748;28;20187;-73
2022/09/08 05:13:15;;;;;;;2.83;1.60;;;17.70;93.80;;;;;;5019527;28;20247;-72
2022/09/08 05:15:41;;;;;;;3.00;1.80;;;17.70;93.60;;;;;;5013550;28;20457;-73
2022/09/08 05:18:06;;;;;;;2.50;1.77;;;17.80;93.60;;;;;;5034049;28;20204;-72
2022/09/08 05:20:32;;;;;;;1.90;1.40;;;17.80;93.20;;;;;;5028209;28;20185;-74
2022/09/08 05:22:57;;;;;;;1.83;1.40;;;17.90;92.90;;;;;;5025992;28;20206;-71
2022/09/08 05:25:23;;;;;;;3.03;1.73;;;17.90;92.70;;;;;;5030115;28;20296;-73
2022/09/08 05:27:48;;;;;;;2.63;1.53;;;17.90;92.70;;;;;;5028288;28;20225;-72
2022/09/08 05:30:14;;;;;;;3.43;1.30;;;17.90;92.90;;;;;;5031160;28;20178;-72
2022/09/08 05:32:41;;;;;;;2.33;1.40;;;17.90;93.00;;;;;;5027630;28;20216;-75
2022/09/08 05:35:07;;;;;;;2.80;1.70;;;17.90;93.10;;;;;;5028142;28;20426;-74
2022/09/08 05:37:33;;;;;;;3.10;2.10;;;17.90;93.20;;;;;;5034842;28;20433;-71
2022/09/08 05:39:59;;;;;;;2.30;1.53;;;17.90;93.30;;;;;;5007370;28;20451;-73
2022/09/08 05:42:25;;;;;;;3.20;1.50;;;17.90;93.30;;;;;;5009999;28;20490;-71
2022/09/08 05:44:50;;;;;;;5.70;1.70;;;17.80;93.40;;;;;;5029541;28;20213;-72
2022/09/08 05:47:16;;;;;;;3.10;1.90;;;17.80;93.50;;;;;;5030056;28;20225;-71
2022/09/08 05:49:41;;;;;;;3.50;1.70;;;17.80;93.60;;;;;;5030025;28;20206;-72
2022/09/08 05:52:07;;;;;;;3.33;1.50;;;17.80;93.60;;;;;;5028011;28;20194;-72
2022/09/08 05:54:32;;;;;;;2.23;1.60;;;17.70;93.60;;;;;;5025375;28;20185;-72
2022/09/08 05:56:58;;;;;;;2.30;1.93;;;17.70;93.70;;;;;;5030153;28;20185;-74
2022/09/08 05:59:24;;;;;;;3.13;1.60;;;17.70;93.90;;;;;;5024271;28;20185;-74
2022/09/08 06:01:50;;;;;;;5.80;1.53;;;17.60;94.00;;;;;;5029925;28;20556;-72
2022/09/08 06:04:15;;;;;;;2.77;1.77;;;17.60;94.00;;;;;;5023495;28;20465;-73
2022/09/08 06:06:41;;;;;;;2.80;1.90;;;17.60;93.80;;;;;;5029650;28;20266;-75
2022/09/08 06:09:07;;;;;;;2.00;1.30;;;17.60;93.70;;;;;;5012569;28;20181;-73
2022/09/08 06:11:35;;;;;;;3.00;1.40;;;17.60;93.60;;;;;;5026940;28;20185;-73
2022/09/08 06:14:01;;;;;;;3.17;1.77;;;17.60;93.50;;;;;;5009737;28;21381;-73
2022/09/08 06:16:27;;;;;;;5.77;1.63;;;17.60;92.90;;;;;;5026788;28;20868;-73
2022/09/08 06:18:53;;;;;;;3.30;1.83;;;17.60;92.70;;;;;;5028457;28;20928;-72
2022/09/08 06:21:24;;;;;;;2.90;1.60;;;17.60;92.60;;;;;;5028958;28;20441;-73
2022/09/08 06:23:52;;;;;;;2.10;1.40;;;17.50;92.70;;;;;;5028092;28;20294;-71
2022/09/08 06:26:42;;;;;;;2.53;1.77;;;17.50;92.90;;;;;;5020031;28;20433;-71
2022/09/08 06:29:23;;;;;;;2.47;1.50;;;17.50;92.90;;;;;;5026713;28;20421;-73
2022/09/08 06:31:55;;;;;;;3.73;1.50;;;17.50;92.90;;;;;;5033433;28;20416;-71
2022/09/08 06:34:26;;;;;;;1.93;1.50;;;17.40;92.80;;;;;;5029038;28;20471;-74
2022/09/08 06:37:08;;;;;;;11.07;2.30;;;17.40;92.90;;;;;;5033607;28;20426;-75
2022/09/08 06:39:44;;;;;;;2.73;1.60;;;17.40;92.80;;;;;;5033821;28;20488;-74
2022/09/08 06:42:16;;;;;;;2.90;1.30;;;17.30;91.30;;;;;;5030553;28;20419;-73
2022/09/08 06:44:44;;;;;;;2.60;1.30;;;17.30;91.70;;;;;;5031351;28;20475;-75
2022/09/08 06:47:18;;;;;;;3.03;1.40;;;17.30;91.00;;;;;;5033617;28;20515;-74
2022/09/08 06:49:43;;;;;;;1.77;1.37;;;17.30;91.00;;;;;;5012961;28;20423;-74
2022/09/08 06:52:20;;;;;;;4.93;1.40;;;17.30;91.00;;;;;;5031721;28;20439;-74
2022/09/08 06:54:50;;;;;;;2.43;1.40;;;17.40;90.40;;;;;;5030428;28;20189;-74
2022/09/08 06:57:45;;;;;;;1.60;1.10;;;17.40;90.40;;;;;;5033447;28;20412;-75
2022/09/08 07:00:19;;;;;;;2.37;1.50;;;17.40;90.50;;;;;;5033912;28;20775;-74
2022/09/08 07:03:10;;;;;;;4.90;1.53;;;17.40;90.50;;;;;;5031388;28;20455;-75
2022/09/08 07:05:53;;;;;;;1.67;1.10;;;17.40;90.40;;;;;;5023908;28;20440;-74
2022/09/08 07:08:43;;;;;;;3.27;1.20;;;17.40;90.10;;;;;;5030816;28;20922;-74
2022/09/08 07:11:37;;;;;;;1.83;1.10;;;17.40;89.60;;;;;;5009716;28;20434;-74
2022/09/08 07:14:39;;;;;;;2.90;1.20;;;17.40;89.00;;;;;;5026968;28;20462;-76
2022/09/08 07:17:19;;;;;;;2.00;1.17;;;17.40;89.50;;;;;;5010797;28;20428;-76
2022/09/08 07:19:50;;;;;;;2.20;1.30;;;17.40;89.50;;;;;;5033357;28;20454;-75
2022/09/08 07:22:16;;;;;;;3.50;1.50;;;17.40;89.70;;;;;;5031744;28;21055;-74
2022/09/08 07:24:43;;;;;;;1.67;1.13;;;17.50;89.30;;;;;;5012810;28;20498;-76
2022/09/08 07:27:13;;;;;;;2.80;1.40;;;17.50;89.20;;;;;;5034041;28;20553;-74
2022/09/08 07:29:45;;;;;;;1.70;1.10;;;17.60;89.00;;;;;;5017674;28;20436;-72
2022/09/08 07:32:41;;;;;;;5.70;1.93;;;17.80;87.80;;;;;;5029277;28;20416;-74
2022/09/08 07:35:33;;;;;;;10.03;1.33;;;17.90;87.30;;;;;;4936471;29;20440;-73
2022/09/08 07:38:05;;;;;;;4.60;1.23;;;18.00;87.00;;;;;;4915886;29;20445;-76
2022/09/08 07:40:43;;;;;;;4.93;1.30;;;18.10;86.60;;;;;;4920856;29;20502;-74
2022/09/08 07:43:11;;;;;;;2.07;1.10;;;18.20;85.60;;;;;;4934467;29;20473;-74
2022/09/08 07:46:05;;;;;;;1.60;1.27;;;18.30;86.20;;;;;;4936962;29;20487;-74
2022/09/08 07:48:38;;;;;;;6.60;1.43;;;18.40;85.30;;;;;;4935910;29;20532;-75
2022/09/08 07:51:16;;;;;;;4.20;1.33;;;18.50;84.70;;;;;;4935386;29;20464;-74
2022/09/08 07:54:06;;;;;;;2.83;1.03;;;18.50;84.10;;;;;;4932321;29;20498;-73
2022/09/08 07:56:45;;;;;;;5.03;1.67;;;18.50;84.40;;;;;;4941914;29;20442;-75
2022/09/08 07:59:11;;;;;;;3.67;1.53;;;18.50;85.00;;;;;;4941634;29;20424;-74
2022/09/08 08:02:07;;;;;;;3.07;1.50;;;18.70;85.00;;;;;;4924474;29;20434;-74
2022/09/08 08:05:00;;;;;;;7.03;1.67;;;18.80;84.00;;;;;;4938081;29;20255;-73
2022/09/08 08:07:44;;;;;;;3.53;1.70;;;18.70;83.60;;;;;;4937792;29;20980;-74
2022/09/08 08:10:29;;;;;;;3.90;1.70;;;18.80;83.30;;;;;;4937717;29;20455;-73
2022/09/08 08:13:22;;;;;;;1.40;1.10;;;18.80;82.10;;;;;;5035038;28;20450;-74
2022/09/08 08:16:09;;;;;;;6.70;1.30;;;18.70;83.00;;;;;;5037583;28;20472;-73
2022/09/08 08:18:38;;;;;;;2.23;1.20;;;18.80;82.50;;;;;;5037941;28;20430;-73
2022/09/08 08:21:13;;;;;;;3.77;1.40;;;18.80;80.50;;;;;;5019276;28;20430;-74
2022/09/08 08:23:42;;;;;;;2.20;1.30;;;18.70;81.80;;;;;;5033871;28;21066;-73
2022/09/08 08:26:32;;;;;;;12.87;2.20;;;18.80;81.50;;;;;;5034072;28;20530;-75
2022/09/08 08:29:24;;;;;;;5.50;1.70;;;18.90;81.50;;;;;;5036472;28;20457;-73
2022/09/08 08:32:16;;;;;;;4.40;1.33;;;19.00;80.60;;;;;;5040284;28;20412;-74
2022/09/08 08:34:59;;;;;;;1.70;1.30;;;19.00;80.60;;;;;;5040942;28;20427;-72
2022/09/08 08:37:30;;;;;;;2.43;1.50;;;19.00;80.30;;;;;;5043593;28;20511;-74
2022/09/08 08:39:58;;;;;;;2.30;1.30;;;19.00;79.90;;;;;;5044423;28;20435;-73
2022/09/08 08:42:29;;;;;;;4.63;1.93;;;19.00;80.00;;;;;;5037508;28;20474;-73
2022/09/08 08:45:00;;;;;;;6.20;1.30;;;19.10;80.50;;;;;;5042042;28;20546;-75
2022/09/08 08:47:37;;;;;;;1.73;1.40;;;19.20;79.20;;;;;;5039976;28;20462;-74
2022/09/08 08:50:18;;;;;;;4.50;1.57;;;19.40;79.20;;;;;;5047631;28;20441;-74
2022/09/08 08:53:15;;;;;;;3.20;1.50;;;19.50;78.10;;;;;;5037388;28;20470;-73
2022/09/08 08:55:58;;;;;;;6.43;1.60;;;19.50;77.80;;;;;;5048827;28;20503;-72
2022/09/08 08:58:43;;;;;;;2.63;1.60;;;19.80;77.60;;;;;;5045050;28;20408;-74
2022/09/08 09:01:42;;;;;;;5.60;1.50;;;19.90;75.90;;;;;;5043716;28;21121;-74
2022/09/08 09:04:36;;;;;;;1.47;1.20;;;20.00;74.90;;;;;;5037635;28;20478;-73
2022/09/08 09:07:13;;;;;;;2.23;1.30;;;20.10;74.50;;;;;;5045996;28;20427;-73
2022/09/08 09:09:47;;;;;;;9.93;2.70;;;20.20;74.20;;;;;;5049434;28;20420;-73
2022/09/08 09:12:18;;;;;;;4.37;1.60;;;20.40;73.90;;;;;;5043616;28;20458;-72
2022/09/08 09:14:57;;;;;;;3.00;1.30;;;20.50;73.00;;;;;;5046433;28;20429;-74
2022/09/08 09:17:47;;;;;;;2.70;1.40;;;20.40;73.90;;;;;;5026697;28;20474;-73
2022/09/08 09:20:37;;;;;;;2.77;1.30;;;20.60;73.20;;;;;;5046804;28;20416;-73
2022/09/08 09:23:42;;;;;;;2.37;1.40;;;20.70;72.40;;;;;;5044639;28;20460;-72
2022/09/08 09:26:19;;;;;;;2.80;1.40;;;20.40;72.60;;;;;;5035699;28;20412;-75
2022/09/08 09:29:04;;;;;;;2.10;1.07;;;20.00;72.60;;;;;;5037118;28;20981;-74
2022/09/08 09:32:04;;;;;;;2.10;1.43;;;20.00;72.40;;;;;;5037190;28;20418;-74
2022/09/08 09:34:52;;;;;;;1.97;1.40;;;20.10;73.20;;;;;;5038639;28;20568;-75
2022/09/08 09:37:45;;;;;;;2.17;1.50;;;20.00;73.50;;;;;;5036009;28;20412;-72
2022/09/08 09:40:34;;;;;;;2.17;1.50;;;20.10;71.70;;;;;;5044720;28;20452;-73
2022/09/08 09:43:33;;;;;;;2.63;1.40;;;19.90;72.00;;;;;;5046739;28;20459;-74
2022/09/08 09:46:27;;;;;;;3.10;1.37;;;19.90;72.40;;;;;;4944024;29;20460;-73
2022/09/08 09:49:21;;;;;;;1.83;1.20;;;19.90;72.30;;;;;;4921508;29;20452;-73
2022/09/08 09:52:06;;;;;;;1.73;1.27;;;20.00;71.40;;;;;;4933417;29;20452;-73
2022/09/08 09:54:46;;;;;;;2.70;1.47;;;20.20;71.30;;;;;;4932556;29;20441;-75
2022/09/08 09:57:36;;;;;;;3.70;1.60;;;20.30;70.70;;;;;;4916098;29;20446;-74
2022/09/08 10:00:08;;;;;;;2.83;1.73;;;20.50;70.80;;;;;;4930966;29;20436;-73
2022/09/08 10:02:45;;;;;;;4.93;1.63;;;20.50;69.80;;;;;;4928960;29;20457;-75
2022/09/08 10:05:39;;;;;;;2.33;1.10;;;20.50;68.60;;;;;;4928355;29;20468;-73
2022/09/08 10:08:42;;;;;;;2.23;1.23;;;20.60;68.00;;;;;;4930372;29;20433;-74
2022/09/08 10:11:38;;;;;;;7.37;1.47;;;20.80;68.50;;;;;;4932985;29;20430;-72
2022/09/08 10:14:37;;;;;;;3.23;1.50;;;21.00;68.20;;;;;;4928974;29;20472;-75
2022/09/08 10:17:23;;;;;;;1.67;1.20;;;21.40;67.50;;;;;;4931577;29;20433;-77
2022/09/08 10:20:10;;;;;;;2.87;1.30;;;21.40;64.50;;;;;;4930772;29;20478;-72
2022/09/08 10:22:47;;;;;;;2.37;1.50;;;21.30;65.60;;;;;;4955038;28;20965;-73
2022/09/08 10:25:36;;;;;;;2.27;1.50;;;21.50;65.70;;;;;;5024173;28;20530;-74
2022/09/08 10:28:22;;;;;;;2.50;1.40;;;21.50;65.80;;;;;;5015884;28;20524;-74
2022/09/08 10:31:12;;;;;;;2.67;1.50;;;21.50;66.30;;;;;;5025464;28;20491;-73
2022/09/08 10:33:56;;;;;;;2.93;1.30;;;21.40;66.00;;;;;;5024986;28;20932;-73
2022/09/08 10:36:43;;;;;;;7.90;2.23;;;21.50;65.80;;;;;;5029464;28;20437;-73
2022/09/08 10:39:26;;;;;;;3.10;1.40;;;21.50;65.60;;;;;;5025638;28;20869;-73
2022/09/08 10:42:39;;;;;;;2.40;1.60;;;21.60;65.40;;;;;;5029544;28;20952;-75
2022/09/08 10:45:23;;;;;;;2.40;1.10;;;21.80;65.30;;;;;;5018594;28;20531;-73
2022/09/08 10:47:48;;;;;;;2.53;1.50;;;21.80;63.70;;;;;;5010165;28;20860;-74
2022/09/08 10:50:21;;;;;;;2.60;1.27;;;21.70;64.20;;;;;;5028610;28;20426;-75
2022/09/08 10:53:06;;;;;;;2.70;1.90;;;21.60;64.50;;;;;;5028051;28;20599;-73
2022/09/08 10:55:54;;;;;;;8.27;1.93;;;21.40;65.70;;;;;;5025735;28;20434;-75
2022/09/08 10:58:50;;;;;;;5.33;1.90;;;21.40;66.30;;;;;;5028338;28;20506;-74
2022/09/08 11:01:41;;;;;;;4.43;1.40;;;21.20;67.30;;;;;;5025391;28;20455;-75
2022/09/08 11:04:16;;;;;;;4.37;1.80;;;21.00;67.70;;;;;;5002614;28;20487;-75
2022/09/08 11:07:00;;;;;;;10.17;1.83;;;20.90;68.30;;;;;;5030931;28;20422;-74
2022/09/08 11:10:02;;;;;;;1.63;1.17;;;20.80;69.10;;;;;;5023622;28;20420;-72
2022/09/08 11:12:44;;;;;;;3.43;2.00;;;20.80;68.60;;;;;;5023386;28;20460;-74
2022/09/08 11:15:21;;;;;;;2.03;1.30;;;20.90;68.30;;;;;;5027577;28;20515;-74
2022/09/08 11:17:51;;;;;;;2.50;1.70;;;21.10;67.90;;;;;;5031383;28;20485;-73
2022/09/08 11:20:29;;;;;;;3.83;1.57;;;21.30;67.50;;;;;;5033246;28;20530;-72
2022/09/08 11:23:01;;;;;;;2.23;1.40;;;21.30;66.90;;;;;;5027005;28;20519;-74
2022/09/08 11:25:36;;;;;;;3.27;1.20;;;21.10;66.90;;;;;;5033555;28;20472;-74
2022/09/08 11:28:51;;;;;;;2.97;1.60;;;21.30;67.50;;;;;;5038832;28;20900;-74
2022/09/08 11:31:54;;;;;;;2.70;1.27;;;21.60;68.30;;;;;;4939454;29;20434;-74
2022/09/08 11:34:48;;;;;;;2.20;1.20;;;21.10;70.80;;;;;;4952327;28;20492;-73
2022/09/08 11:37:14;;;;;;;2.50;1.50;;;21.20;71.40;;;;;;4933221;29;20930;-75
2022/09/08 11:39:59;;;;;;;2.67;1.50;;;21.20;71.40;;;;;;4934880;29;20439;-72
2022/09/08 11:42:58;;;;;;;6.53;2.13;;;21.70;70.50;;;;;;4927246;29;20286;-73
2022/09/08 11:45:36;;;;;;;6.10;1.60;;;21.90;69.10;;;;;;4933239;29;20481;-75
2022/09/08 11:48:04;;;;;;;2.83;1.60;;;21.80;68.90;;;;;;4933882;29;20435;-74
2022/09/08 11:50:38;;;;;;;4.50;1.73;;;21.60;68.30;;;;;;4933786;29;20443;-73
2022/09/08 11:53:24;;;;;;;4.20;1.50;;;21.30;69.10;;;;;;4936032;29;20530;-74
2022/09/08 11:56:27;;;;;;;5.70;1.93;;;21.10;69.10;;;;;;4930414;29;20423;-74
2022/09/08 11:59:07;;;;;;;4.10;1.30;;;21.20;69.40;;;;;;4931525;29;20432;-75
2022/09/08 12:01:58;;;;;;;3.77;1.47;;;20.90;68.00;;;;;;4933729;29;20436;-74
2022/09/08 12:04:27;;;;;;;7.67;1.97;;;21.00;67.90;;;;;;4951212;28;20498;-76
2022/09/08 12:06:53;;;;;;;5.27;1.70;;;21.30;67.30;;;;;;5029931;28;20434;-74
2022/09/08 12:09:25;;;;;;;4.03;1.50;;;21.40;66.30;;;;;;5031625;28;20438;-76
2022/09/08 12:12:05;;;;;;;2.83;1.33;;;21.40;66.60;;;;;;5029894;28;20202;-74
2022/09/08 12:14:46;;;;;;;1.97;1.20;;;21.50;65.60;;;;;;5023293;28;20442;-74
2022/09/08 12:17:24;;;;;;;3.27;1.57;;;21.50;64.80;;;;;;5024725;28;20402;-75
2022/09/08 12:20:02;;;;;;;2.27;1.40;;;21.60;64.70;;;;;;5027904;28;20436;-74
2022/09/08 12:22:42;;;;;;;2.30;1.30;;;21.70;63.90;;;;;;5027558;28;20545;-74
2022/09/08 12:25:29;;;;;;;4.20;1.40;;;21.70;63.90;;;;;;5030609;28;20469;-72
2022/09/08 12:28:18;;;;;;;2.90;1.30;;;21.80;64.20;;;;;;5023843;28;20409;-72
2022/09/08 12:31:05;;;;;;;4.83;1.57;;;21.80;64.80;;;;;;5029020;28;20811;-74
2022/09/08 12:33:39;;;;;;;1.80;1.07;;;21.90;64.40;;;;;;5022782;28;20450;-75
2022/09/08 12:36:17;;;;;;;2.20;1.23;;;21.90;65.00;;;;;;5028252;28;20422;-73
2022/09/08 12:39:15;;;;;;;3.90;1.50;;;21.80;65.80;;;;;;5031328;28;20437;-73
2022/09/08 12:41:46;;;;;;;1.87;1.57;;;21.70;67.00;;;;;;5029070;28;20455;-75
2022/09/08 12:44:49;;;;;;;3.57;1.80;;;21.60;67.20;;;;;;5023713;28;20481;-73
2022/09/08 12:47:39;;;;;;;2.80;1.37;;;21.70;66.60;;;;;;5025749;28;20431;-73
2022/09/08 12:50:39;;;;;;;2.03;1.20;;;22.10;66.70;;;;;;5025262;28;20464;-74
2022/09/08 12:53:12;;;;;;;1.70;1.40;;;22.60;65.60;;;;;;4976643;28;20502;-72
2022/09/08 12:55:49;;;;;;;3.00;1.33;;;23.10;63.70;;;;;;5025917;28;20433;-73
2022/09/08 12:58:26;;;;;;;2.23;1.40;;;23.50;61.50;;;;;;5020815;28;20420;-72
2022/09/08 13:01:12;;;;;;;2.27;1.30;;;23.80;59.70;;;;;;5027625;28;20423;-72
2022/09/08 13:03:41;;;;;;;2.87;1.53;;;24.00;58.90;;;;;;5021644;28;20464;-73
2022/09/08 13:06:18;;;;;;;3.37;1.87;;;24.10;58.80;;;;;;5037684;28;20426;-72
2022/09/08 13:08:56;;;;;;;3.23;1.40;;;23.90;59.20;;;;;;5018105;28;20435;-73
2022/09/08 13:11:43;;;;;;;1.50;1.30;;;23.40;57.60;;;;;;5018927;28;20429;-72
2022/09/08 13:14:11;;;;;;;2.33;1.50;;;23.30;58.70;;;;;;5030494;28;20464;-74
2022/09/08 13:16:52;;;;;;;2.17;1.10;;;23.20;58.10;;;;;;5033961;28;20526;-72
2022/09/08 13:19:28;;;;;;;2.70;1.20;;;23.00;57.40;;;;;;5031748;28;20461;-73
2022/09/08 13:22:16;;;;;;;1.60;1.23;;;22.80;58.50;;;;;;5036989;28;20438;-72
2022/09/08 13:24:59;;;;;;;2.90;1.40;;;22.80;58.70;;;;;;5030325;28;20466;-72
2022/09/08 13:27:30;;;;;;;1.00;0.90;;;22.80;58.20;;;;;;5036093;28;20459;-71
2022/09/08 13:30:08;;;;;;;4.40;1.40;;;22.90;58.50;;;;;;5031054;28;20446;-74
2022/09/08 13:32:46;;;;;;;1.80;1.20;;;22.80;58.20;;;;;;5030489;28;20461;-71